sensor_id;sensor_type;location;lat;lon;timestamp;P1;durP1;ratioP1;P2;durP2;ratioP2
14984;SDS011;7588;62.368;25.902;2023-08-01T00:02:18;109.17;;;103.97;;
14984;SDS011;7588;62.368;25.902;2023-08-01T00:04:44;108.53;;;103.43;;
14984;SDS011;7588;62.368;25.902;2023-08-01T00:07:10;111.57;;;106.20;;
14984;SDS011;7588;62.368;25.902;2023-08-01T00:09:35;112.00;;;106.33;;
14984;SDS011;7588;62.368;25.902;2023-08-01T00:12:01;115.30;;;109.90;;
14984;SDS011;7588;62.368;25.902;2023-08-01T00:14:27;106.97;;;101.57;;
14984;SDS011;7588;62.368;25.902;2023-08-01T00:16:52;118.73;;;113.20;;
14984;SDS011;7588;62.368;25.902;2023-08-01T00:19:18;124.07;;;118.40;;
14984;SDS011;7588;62.368;25.902;2023-08-01T00:21:44;114.10;;;108.43;;
14984;SDS011;7588;62.368;25.902;2023-08-01T00:24:10;115.87;;;110.40;;
14984;SDS011;7588;62.368;25.902;2023-08-01T00:26:36;113.97;;;108.47;;
14984;SDS011;7588;62.368;25.902;2023-08-01T00:29:01;112.13;;;106.57;;
14984;SDS011;7588;62.368;25.902;2023-08-01T00:31:27;110.17;;;104.70;;
14984;SDS011;7588;62.368;25.902;2023-08-01T00:33:53;107.87;;;102.60;;
14984;SDS011;7588;62.368;25.902;2023-08-01T00:36:18;106.80;;;100.63;;
14984;SDS011;7588;62.368;25.902;2023-08-01T00:38:45;119.63;;;113.53;;
14984;SDS011;7588;62.368;25.902;2023-08-01T00:41:10;101.50;;;96.10;;
14984;SDS011;7588;62.368;25.902;2023-08-01T00:43:36;112.33;;;106.77;;
14984;SDS011;7588;62.368;25.902;2023-08-01T00:46:03;108.47;;;103.30;;
14984;SDS011;7588;62.368;25.902;2023-08-01T00:48:30;115.20;;;109.77;;
14984;SDS011;7588;62.368;25.902;2023-08-01T00:51:00;105.23;;;100.33;;
14984;SDS011;7588;62.368;25.902;2023-08-01T00:53:29;109.27;;;103.63;;
14984;SDS011;7588;62.368;25.902;2023-08-01T00:55:55;114.90;;;109.10;;
14984;SDS011;7588;62.368;25.902;2023-08-01T00:58:22;124.00;;;118.27;;
14984;SDS011;7588;62.368;25.902;2023-08-01T01:00:48;126.07;;;120.40;;
14984;SDS011;7588;62.368;25.902;2023-08-01T01:03:14;127.50;;;121.77;;
14984;SDS011;7588;62.368;25.902;2023-08-01T01:05:43;125.97;;;119.53;;
14984;SDS011;7588;62.368;25.902;2023-08-01T01:08:14;120.43;;;114.30;;
14984;SDS011;7588;62.368;25.902;2023-08-01T01:10:40;122.97;;;116.90;;
14984;SDS011;7588;62.368;25.902;2023-08-01T01:13:06;127.37;;;121.20;;
14984;SDS011;7588;62.368;25.902;2023-08-01T01:15:32;128.20;;;122.10;;
14984;SDS011;7588;62.368;25.902;2023-08-01T01:17:57;123.83;;;118.13;;
14984;SDS011;7588;62.368;25.902;2023-08-01T01:20:23;123.90;;;118.57;;
14984;SDS011;7588;62.368;25.902;2023-08-01T01:22:49;110.60;;;105.20;;
14984;SDS011;7588;62.368;25.902;2023-08-01T01:25:18;115.83;;;109.73;;
14984;SDS011;7588;62.368;25.902;2023-08-01T01:27:49;129.70;;;123.93;;
14984;SDS011;7588;62.368;25.902;2023-08-01T01:30:17;119.23;;;113.60;;
14984;SDS011;7588;62.368;25.902;2023-08-01T01:32:43;125.43;;;119.43;;
14984;SDS011;7588;62.368;25.902;2023-08-01T01:35:10;134.53;;;128.30;;
14984;SDS011;7588;62.368;25.902;2023-08-01T01:37:36;138.30;;;131.90;;
14984;SDS011;7588;62.368;25.902;2023-08-01T01:40:01;138.60;;;132.23;;
14984;SDS011;7588;62.368;25.902;2023-08-01T01:42:27;142.77;;;136.07;;
14984;SDS011;7588;62.368;25.902;2023-08-01T01:44:53;126.97;;;120.87;;
14984;SDS011;7588;62.368;25.902;2023-08-01T01:47:19;133.30;;;127.07;;
14984;SDS011;7588;62.368;25.902;2023-08-01T01:49:45;134.87;;;128.30;;
14984;SDS011;7588;62.368;25.902;2023-08-01T01:52:10;137.10;;;130.63;;
14984;SDS011;7588;62.368;25.902;2023-08-01T01:54:36;127.73;;;121.57;;
14984;SDS011;7588;62.368;25.902;2023-08-01T01:57:02;122.27;;;116.33;;
14984;SDS011;7588;62.368;25.902;2023-08-01T01:59:27;134.23;;;128.13;;
14984;SDS011;7588;62.368;25.902;2023-08-01T02:01:53;129.47;;;123.10;;
14984;SDS011;7588;62.368;25.902;2023-08-01T02:04:18;130.67;;;124.20;;
14984;SDS011;7588;62.368;25.902;2023-08-01T02:06:44;130.77;;;124.70;;
14984;SDS011;7588;62.368;25.902;2023-08-01T02:09:10;113.63;;;108.20;;
14984;SDS011;7588;62.368;25.902;2023-08-01T02:11:36;111.47;;;106.07;;
14984;SDS011;7588;62.368;25.902;2023-08-01T02:14:01;99.63;;;94.53;;
14984;SDS011;7588;62.368;25.902;2023-08-01T02:16:28;103.47;;;98.30;;
14984;SDS011;7588;62.368;25.902;2023-08-01T02:18:53;103.57;;;98.43;;
14984;SDS011;7588;62.368;25.902;2023-08-01T02:21:19;102.73;;;97.33;;
14984;SDS011;7588;62.368;25.902;2023-08-01T02:23:45;104.83;;;99.47;;
14984;SDS011;7588;62.368;25.902;2023-08-01T02:26:10;97.40;;;92.40;;
14984;SDS011;7588;62.368;25.902;2023-08-01T02:28:36;96.43;;;91.43;;
14984;SDS011;7588;62.368;25.902;2023-08-01T02:31:02;104.53;;;99.27;;
14984;SDS011;7588;62.368;25.902;2023-08-01T02:33:27;99.47;;;93.97;;
14984;SDS011;7588;62.368;25.902;2023-08-01T02:35:53;109.93;;;104.60;;
14984;SDS011;7588;62.368;25.902;2023-08-01T02:38:19;112.13;;;106.63;;
14984;SDS011;7588;62.368;25.902;2023-08-01T02:40:44;111.13;;;104.97;;
14984;SDS011;7588;62.368;25.902;2023-08-01T02:43:10;111.97;;;106.57;;
14984;SDS011;7588;62.368;25.902;2023-08-01T02:45:35;94.60;;;89.87;;
14984;SDS011;7588;62.368;25.902;2023-08-01T02:48:01;103.73;;;98.63;;
14984;SDS011;7588;62.368;25.902;2023-08-01T02:50:27;106.80;;;101.50;;
14984;SDS011;7588;62.368;25.902;2023-08-01T02:52:52;102.67;;;97.53;;
14984;SDS011;7588;62.368;25.902;2023-08-01T02:55:18;101.00;;;95.67;;
14984;SDS011;7588;62.368;25.902;2023-08-01T02:57:44;110.27;;;104.57;;
14984;SDS011;7588;62.368;25.902;2023-08-01T03:00:10;94.43;;;89.47;;
14984;SDS011;7588;62.368;25.902;2023-08-01T03:02:37;101.83;;;96.20;;
14984;SDS011;7588;62.368;25.902;2023-08-01T03:05:05;101.00;;;95.70;;
14984;SDS011;7588;62.368;25.902;2023-08-01T03:07:32;113.57;;;107.77;;
14984;SDS011;7588;62.368;25.902;2023-08-01T03:09:58;101.43;;;96.27;;
14984;SDS011;7588;62.368;25.902;2023-08-01T03:12:24;100.07;;;94.63;;
14984;SDS011;7588;62.368;25.902;2023-08-01T03:14:49;88.43;;;83.63;;
14984;SDS011;7588;62.368;25.902;2023-08-01T03:17:15;95.80;;;91.00;;
14984;SDS011;7588;62.368;25.902;2023-08-01T03:19:41;88.87;;;84.17;;
14984;SDS011;7588;62.368;25.902;2023-08-01T03:22:07;94.93;;;90.03;;
14984;SDS011;7588;62.368;25.902;2023-08-01T03:24:34;84.63;;;79.80;;
14984;SDS011;7588;62.368;25.902;2023-08-01T03:27:00;87.83;;;83.23;;
14984;SDS011;7588;62.368;25.902;2023-08-01T03:29:26;80.73;;;76.10;;
14984;SDS011;7588;62.368;25.902;2023-08-01T03:31:52;80.97;;;76.77;;
14984;SDS011;7588;62.368;25.902;2023-08-01T03:34:18;74.60;;;70.50;;
14984;SDS011;7588;62.368;25.902;2023-08-01T03:36:43;78.50;;;73.70;;
14984;SDS011;7588;62.368;25.902;2023-08-01T03:39:09;84.37;;;80.20;;
14984;SDS011;7588;62.368;25.902;2023-08-01T03:41:35;81.13;;;76.63;;
14984;SDS011;7588;62.368;25.902;2023-08-01T03:44:02;83.23;;;78.90;;
14984;SDS011;7588;62.368;25.902;2023-08-01T03:46:28;72.93;;;69.03;;
14984;SDS011;7588;62.368;25.902;2023-08-01T03:48:54;74.47;;;70.40;;
14984;SDS011;7588;62.368;25.902;2023-08-01T03:51:20;69.60;;;65.60;;
14984;SDS011;7588;62.368;25.902;2023-08-01T03:53:46;67.50;;;63.40;;
14984;SDS011;7588;62.368;25.902;2023-08-01T03:56:12;61.10;;;57.90;;
14984;SDS011;7588;62.368;25.902;2023-08-01T03:58:38;67.47;;;63.23;;
14984;SDS011;7588;62.368;25.902;2023-08-01T04:01:04;68.33;;;64.37;;
14984;SDS011;7588;62.368;25.902;2023-08-01T04:03:31;143.53;;;137.17;;
14984;SDS011;7588;62.368;25.902;2023-08-01T04:05:57;175.87;;;168.50;;
14984;SDS011;7588;62.368;25.902;2023-08-01T04:08:23;136.53;;;130.43;;
14984;SDS011;7588;62.368;25.902;2023-08-01T04:10:48;72.37;;;68.50;;
14984;SDS011;7588;62.368;25.902;2023-08-01T04:13:15;59.17;;;55.92;;
14984;SDS011;7588;62.368;25.902;2023-08-01T04:15:41;52.13;;;49.17;;
14984;SDS011;7588;62.368;25.902;2023-08-01T04:18:06;51.58;;;48.63;;
14984;SDS011;7588;62.368;25.902;2023-08-01T04:20:32;48.67;;;45.80;;
14984;SDS011;7588;62.368;25.902;2023-08-01T04:22:58;38.20;;;36.05;;
14984;SDS011;7588;62.368;25.902;2023-08-01T04:25:24;41.95;;;39.70;;
14984;SDS011;7588;62.368;25.902;2023-08-01T04:27:51;40.75;;;38.53;;
14984;SDS011;7588;62.368;25.902;2023-08-01T04:30:18;33.30;;;31.30;;
14984;SDS011;7588;62.368;25.902;2023-08-01T04:32:44;30.50;;;28.70;;
14984;SDS011;7588;62.368;25.902;2023-08-01T04:35:09;25.90;;;24.10;;
14984;SDS011;7588;62.368;25.902;2023-08-01T04:37:35;27.88;;;26.20;;
14984;SDS011;7588;62.368;25.902;2023-08-01T04:40:01;25.63;;;23.85;;
14984;SDS011;7588;62.368;25.902;2023-08-01T04:42:27;24.15;;;22.55;;
14984;SDS011;7588;62.368;25.902;2023-08-01T04:44:54;26.38;;;24.77;;
14984;SDS011;7588;62.368;25.902;2023-08-01T04:47:20;24.77;;;23.38;;
14984;SDS011;7588;62.368;25.902;2023-08-01T04:49:46;23.90;;;22.52;;
14984;SDS011;7588;62.368;25.902;2023-08-01T04:52:12;24.75;;;23.30;;
14984;SDS011;7588;62.368;25.902;2023-08-01T04:54:38;26.40;;;24.88;;
14984;SDS011;7588;62.368;25.902;2023-08-01T04:57:04;27.38;;;25.75;;
14984;SDS011;7588;62.368;25.902;2023-08-01T04:59:30;23.83;;;22.52;;
14984;SDS011;7588;62.368;25.902;2023-08-01T05:01:55;18.27;;;16.77;;
14984;SDS011;7588;62.368;25.902;2023-08-01T05:04:21;14.60;;;13.65;;
14984;SDS011;7588;62.368;25.902;2023-08-01T05:06:47;13.65;;;12.75;;
14984;SDS011;7588;62.368;25.902;2023-08-01T05:09:12;11.07;;;10.35;;
14984;SDS011;7588;62.368;25.902;2023-08-01T05:11:38;10.82;;;10.07;;
14984;SDS011;7588;62.368;25.902;2023-08-01T05:14:04;10.95;;;10.38;;
14984;SDS011;7588;62.368;25.902;2023-08-01T05:16:30;10.10;;;9.60;;
14984;SDS011;7588;62.368;25.902;2023-08-01T05:18:56;9.40;;;8.90;;
14984;SDS011;7588;62.368;25.902;2023-08-01T05:21:22;10.52;;;10.02;;
14984;SDS011;7588;62.368;25.902;2023-08-01T05:23:47;10.85;;;10.15;;
14984;SDS011;7588;62.368;25.902;2023-08-01T05:26:13;11.07;;;10.38;;
14984;SDS011;7588;62.368;25.902;2023-08-01T05:28:39;13.55;;;12.85;;
14984;SDS011;7588;62.368;25.902;2023-08-01T05:31:04;12.10;;;11.40;;
14984;SDS011;7588;62.368;25.902;2023-08-01T05:33:30;13.85;;;13.18;;
14984;SDS011;7588;62.368;25.902;2023-08-01T05:35:56;12.88;;;12.27;;
14984;SDS011;7588;62.368;25.902;2023-08-01T05:38:22;14.07;;;13.27;;
14984;SDS011;7588;62.368;25.902;2023-08-01T05:40:47;13.25;;;12.45;;
14984;SDS011;7588;62.368;25.902;2023-08-01T05:43:13;12.52;;;11.88;;
14984;SDS011;7588;62.368;25.902;2023-08-01T05:45:39;12.20;;;11.45;;
14984;SDS011;7588;62.368;25.902;2023-08-01T05:48:05;12.18;;;11.50;;
14984;SDS011;7588;62.368;25.902;2023-08-01T05:50:30;12.30;;;11.70;;
14984;SDS011;7588;62.368;25.902;2023-08-01T05:52:56;11.23;;;10.63;;
14984;SDS011;7588;62.368;25.902;2023-08-01T05:55:22;10.13;;;9.60;;
14984;SDS011;7588;62.368;25.902;2023-08-01T05:57:47;10.38;;;9.77;;
14984;SDS011;7588;62.368;25.902;2023-08-01T06:00:18;7.95;;;7.47;;
14984;SDS011;7588;62.368;25.902;2023-08-01T06:02:46;6.80;;;6.20;;
14984;SDS011;7588;62.368;25.902;2023-08-01T06:05:12;6.95;;;6.45;;
14984;SDS011;7588;62.368;25.902;2023-08-01T06:07:38;6.47;;;5.97;;
14984;SDS011;7588;62.368;25.902;2023-08-01T06:10:04;6.93;;;6.53;;
14984;SDS011;7588;62.368;25.902;2023-08-01T06:12:30;8.27;;;7.88;;
14984;SDS011;7588;62.368;25.902;2023-08-01T06:14:56;6.93;;;6.53;;
14984;SDS011;7588;62.368;25.902;2023-08-01T06:17:21;6.45;;;6.15;;
14984;SDS011;7588;62.368;25.902;2023-08-01T06:19:47;5.30;;;4.90;;
14984;SDS011;7588;62.368;25.902;2023-08-01T06:22:14;7.10;;;6.70;;
14984;SDS011;7588;62.368;25.902;2023-08-01T06:24:40;6.63;;;6.25;;
14984;SDS011;7588;62.368;25.902;2023-08-01T06:27:06;6.22;;;5.82;;
14984;SDS011;7588;62.368;25.902;2023-08-01T06:29:32;7.47;;;6.97;;
14984;SDS011;7588;62.368;25.902;2023-08-01T06:31:59;7.55;;;7.05;;
14984;SDS011;7588;62.368;25.902;2023-08-01T06:34:25;6.00;;;5.70;;
14984;SDS011;7588;62.368;25.902;2023-08-01T06:36:50;7.03;;;6.63;;
14984;SDS011;7588;62.368;25.902;2023-08-01T06:39:16;7.15;;;6.65;;
14984;SDS011;7588;62.368;25.902;2023-08-01T06:41:42;8.00;;;7.40;;
14984;SDS011;7588;62.368;25.902;2023-08-01T06:44:07;9.18;;;8.60;;
14984;SDS011;7588;62.368;25.902;2023-08-01T06:46:33;6.82;;;6.43;;
14984;SDS011;7588;62.368;25.902;2023-08-01T06:48:59;7.85;;;7.45;;
14984;SDS011;7588;62.368;25.902;2023-08-01T06:51:24;8.63;;;8.13;;
14984;SDS011;7588;62.368;25.902;2023-08-01T06:53:50;7.43;;;7.05;;
14984;SDS011;7588;62.368;25.902;2023-08-01T06:56:16;9.23;;;8.70;;
14984;SDS011;7588;62.368;25.902;2023-08-01T06:58:41;7.85;;;7.22;;
14984;SDS011;7588;62.368;25.902;2023-08-01T07:01:07;7.82;;;7.43;;
14984;SDS011;7588;62.368;25.902;2023-08-01T07:03:33;8.05;;;7.65;;
14984;SDS011;7588;62.368;25.902;2023-08-01T07:05:58;7.20;;;6.70;;
14984;SDS011;7588;62.368;25.902;2023-08-01T07:08:24;8.10;;;7.60;;
14984;SDS011;7588;62.368;25.902;2023-08-01T07:10:50;7.50;;;6.97;;
14984;SDS011;7588;62.368;25.902;2023-08-01T07:13:15;8.85;;;8.25;;
14984;SDS011;7588;62.368;25.902;2023-08-01T07:15:42;7.55;;;6.93;;
14984;SDS011;7588;62.368;25.902;2023-08-01T07:18:07;7.85;;;7.43;;
14984;SDS011;7588;62.368;25.902;2023-08-01T07:20:33;7.72;;;7.32;;
14984;SDS011;7588;62.368;25.902;2023-08-01T07:22:58;8.23;;;7.80;;
14984;SDS011;7588;62.368;25.902;2023-08-01T07:25:24;8.95;;;8.45;;
14984;SDS011;7588;62.368;25.902;2023-08-01T07:27:50;9.23;;;8.77;;
14984;SDS011;7588;62.368;25.902;2023-08-01T07:30:16;8.93;;;8.48;;
14984;SDS011;7588;62.368;25.902;2023-08-01T07:32:42;8.52;;;8.10;;
14984;SDS011;7588;62.368;25.902;2023-08-01T07:35:08;7.68;;;7.28;;
14984;SDS011;7588;62.368;25.902;2023-08-01T07:37:34;7.13;;;6.72;;
14984;SDS011;7588;62.368;25.902;2023-08-01T07:40:02;8.32;;;7.88;;
14984;SDS011;7588;62.368;25.902;2023-08-01T07:42:30;8.00;;;7.53;;
14984;SDS011;7588;62.368;25.902;2023-08-01T07:44:56;8.15;;;7.50;;
14984;SDS011;7588;62.368;25.902;2023-08-01T07:47:21;7.30;;;6.75;;
14984;SDS011;7588;62.368;25.902;2023-08-01T07:49:49;7.53;;;7.13;;
14984;SDS011;7588;62.368;25.902;2023-08-01T07:52:15;8.40;;;7.90;;
14984;SDS011;7588;62.368;25.902;2023-08-01T07:54:41;6.90;;;6.43;;
14984;SDS011;7588;62.368;25.902;2023-08-01T07:57:06;7.40;;;7.00;;
14984;SDS011;7588;62.368;25.902;2023-08-01T07:59:32;6.57;;;6.07;;
14984;SDS011;7588;62.368;25.902;2023-08-01T08:01:57;5.45;;;4.95;;
14984;SDS011;7588;62.368;25.902;2023-08-01T08:04:23;4.90;;;4.60;;
14984;SDS011;7588;62.368;25.902;2023-08-01T08:06:49;5.82;;;5.38;;
14984;SDS011;7588;62.368;25.902;2023-08-01T08:09:15;5.93;;;5.47;;
14984;SDS011;7588;62.368;25.902;2023-08-01T08:11:41;5.47;;;5.07;;
14984;SDS011;7588;62.368;25.902;2023-08-01T08:14:06;4.70;;;4.40;;
14984;SDS011;7588;62.368;25.902;2023-08-01T08:16:32;4.75;;;4.03;;
14984;SDS011;7588;62.368;25.902;2023-08-01T08:18:58;5.30;;;4.93;;
14984;SDS011;7588;62.368;25.902;2023-08-01T08:21:24;4.97;;;4.68;;
14984;SDS011;7588;62.368;25.902;2023-08-01T08:23:50;4.82;;;4.47;;
14984;SDS011;7588;62.368;25.902;2023-08-01T08:26:16;4.78;;;4.47;;
14984;SDS011;7588;62.368;25.902;2023-08-01T08:28:41;4.80;;;4.50;;
14984;SDS011;7588;62.368;25.902;2023-08-01T08:31:07;5.10;;;4.80;;
14984;SDS011;7588;62.368;25.902;2023-08-01T08:33:33;4.95;;;4.65;;
14984;SDS011;7588;62.368;25.902;2023-08-01T08:35:59;4.72;;;4.45;;
14984;SDS011;7588;62.368;25.902;2023-08-01T08:38:25;4.88;;;4.47;;
14984;SDS011;7588;62.368;25.902;2023-08-01T08:43:36;4.32;;;3.92;;
14984;SDS011;7588;62.368;25.902;2023-08-01T08:46:02;4.05;;;3.75;;
14984;SDS011;7588;62.368;25.902;2023-08-01T08:48:29;4.30;;;4.00;;
14984;SDS011;7588;62.368;25.902;2023-08-01T08:50:59;4.47;;;3.63;;
14984;SDS011;7588;62.368;25.902;2023-08-01T08:53:26;6.43;;;3.80;;
14984;SDS011;7588;62.368;25.902;2023-08-01T08:55:52;4.05;;;3.72;;
14984;SDS011;7588;62.368;25.902;2023-08-01T08:58:18;4.18;;;3.88;;
14984;SDS011;7588;62.368;25.902;2023-08-01T09:00:44;4.13;;;3.72;;
14984;SDS011;7588;62.368;25.902;2023-08-01T09:03:10;3.30;;;3.10;;
14984;SDS011;7588;62.368;25.902;2023-08-01T09:05:48;4.32;;;3.92;;
14984;SDS011;7588;62.368;25.902;2023-08-01T09:08:23;3.35;;;3.05;;
14984;SDS011;7588;62.368;25.902;2023-08-01T09:10:52;3.80;;;3.38;;
14984;SDS011;7588;62.368;25.902;2023-08-01T09:13:18;4.53;;;3.85;;
14984;SDS011;7588;62.368;25.902;2023-08-01T09:15:43;4.53;;;4.22;;
14984;SDS011;7588;62.368;25.902;2023-08-01T09:18:10;3.63;;;3.35;;
14984;SDS011;7588;62.368;25.902;2023-08-01T09:20:40;3.92;;;3.63;;
14984;SDS011;7588;62.368;25.902;2023-08-01T09:23:09;5.18;;;3.45;;
14984;SDS011;7588;62.368;25.902;2023-08-01T09:25:39;4.15;;;3.85;;
14984;SDS011;7588;62.368;25.902;2023-08-01T09:28:20;4.10;;;3.85;;
14984;SDS011;7588;62.368;25.902;2023-08-01T09:30:48;4.88;;;4.53;;
14984;SDS011;7588;62.368;25.902;2023-08-01T09:33:15;5.00;;;4.60;;
14984;SDS011;7588;62.368;25.902;2023-08-01T09:35:41;4.18;;;3.78;;
14984;SDS011;7588;62.368;25.902;2023-08-01T09:38:09;3.80;;;3.50;;
14984;SDS011;7588;62.368;25.902;2023-08-01T09:40:37;4.30;;;3.95;;
14984;SDS011;7588;62.368;25.902;2023-08-01T09:43:03;6.22;;;5.93;;
14984;SDS011;7588;62.368;25.902;2023-08-01T09:45:29;4.13;;;3.92;;
14984;SDS011;7588;62.368;25.902;2023-08-01T09:47:55;4.53;;;4.22;;
14984;SDS011;7588;62.368;25.902;2023-08-01T09:50:22;4.85;;;4.57;;
14984;SDS011;7588;62.368;25.902;2023-08-01T09:52:48;5.25;;;4.95;;
14984;SDS011;7588;62.368;25.902;2023-08-01T09:55:23;4.40;;;4.10;;
14984;SDS011;7588;62.368;25.902;2023-08-01T09:57:53;4.85;;;4.45;;
14984;SDS011;7588;62.368;25.902;2023-08-01T10:00:21;4.07;;;3.72;;
14984;SDS011;7588;62.368;25.902;2023-08-01T10:02:47;4.13;;;3.85;;
14984;SDS011;7588;62.368;25.902;2023-08-01T10:05:15;4.15;;;3.92;;
14984;SDS011;7588;62.368;25.902;2023-08-01T10:07:43;5.47;;;5.18;;
14984;SDS011;7588;62.368;25.902;2023-08-01T10:10:10;5.70;;;5.38;;
14984;SDS011;7588;62.368;25.902;2023-08-01T10:12:37;6.65;;;6.35;;
14984;SDS011;7588;62.368;25.902;2023-08-01T10:15:06;8.02;;;7.53;;
14984;SDS011;7588;62.368;25.902;2023-08-01T10:17:33;7.03;;;6.63;;
14984;SDS011;7588;62.368;25.902;2023-08-01T10:20:00;6.82;;;6.43;;
14984;SDS011;7588;62.368;25.902;2023-08-01T10:22:26;6.65;;;6.32;;
14984;SDS011;7588;62.368;25.902;2023-08-01T10:24:53;8.73;;;8.32;;
14984;SDS011;7588;62.368;25.902;2023-08-01T10:27:20;8.95;;;8.55;;
14984;SDS011;7588;62.368;25.902;2023-08-01T10:29:59;6.32;;;5.88;;
14984;SDS011;7588;62.368;25.902;2023-08-01T10:32:32;6.18;;;5.80;;
14984;SDS011;7588;62.368;25.902;2023-08-01T10:34:59;4.45;;;4.15;;
14984;SDS011;7588;62.368;25.902;2023-08-01T10:37:26;4.07;;;3.78;;
14984;SDS011;7588;62.368;25.902;2023-08-01T10:39:58;5.47;;;5.05;;
14984;SDS011;7588;62.368;25.902;2023-08-01T10:42:25;4.55;;;4.15;;
14984;SDS011;7588;62.368;25.902;2023-08-01T10:44:51;5.22;;;4.88;;
14984;SDS011;7588;62.368;25.902;2023-08-01T10:47:26;4.22;;;4.03;;
14984;SDS011;7588;62.368;25.902;2023-08-01T10:49:52;5.25;;;4.85;;
14984;SDS011;7588;62.368;25.902;2023-08-01T10:52:19;3.60;;;3.35;;
14984;SDS011;7588;62.368;25.902;2023-08-01T10:54:48;4.35;;;4.15;;
14984;SDS011;7588;62.368;25.902;2023-08-01T10:57:28;5.10;;;4.70;;
14984;SDS011;7588;62.368;25.902;2023-08-01T10:59:55;6.00;;;5.60;;
14984;SDS011;7588;62.368;25.902;2023-08-01T11:02:25;11.75;;;11.13;;
14984;SDS011;7588;62.368;25.902;2023-08-01T11:05:01;5.70;;;5.40;;
14984;SDS011;7588;62.368;25.902;2023-08-01T11:07:32;9.32;;;8.82;;
14984;SDS011;7588;62.368;25.902;2023-08-01T11:10:08;9.05;;;8.38;;
14984;SDS011;7588;62.368;25.902;2023-08-01T11:12:36;9.80;;;9.20;;
14984;SDS011;7588;62.368;25.902;2023-08-01T11:15:02;8.65;;;8.02;;
14984;SDS011;7588;62.368;25.902;2023-08-01T11:17:33;6.68;;;6.28;;
14984;SDS011;7588;62.368;25.902;2023-08-01T11:20:03;8.93;;;8.43;;
14984;SDS011;7588;62.368;25.902;2023-08-01T11:22:33;8.32;;;7.93;;
14984;SDS011;7588;62.368;25.902;2023-08-01T11:24:59;9.48;;;8.98;;
14984;SDS011;7588;62.368;25.902;2023-08-01T11:27:25;12.43;;;11.82;;
14984;SDS011;7588;62.368;25.902;2023-08-01T11:29:52;11.95;;;11.38;;
14984;SDS011;7588;62.368;25.902;2023-08-01T11:32:18;6.18;;;5.78;;
14984;SDS011;7588;62.368;25.902;2023-08-01T11:34:48;9.32;;;8.75;;
14984;SDS011;7588;62.368;25.902;2023-08-01T11:37:14;8.45;;;8.05;;
14984;SDS011;7588;62.368;25.902;2023-08-01T11:39:43;7.30;;;6.90;;
14984;SDS011;7588;62.368;25.902;2023-08-01T11:42:14;7.28;;;6.90;;
14984;SDS011;7588;62.368;25.902;2023-08-01T11:44:41;5.43;;;5.13;;
14984;SDS011;7588;62.368;25.902;2023-08-01T11:47:10;4.15;;;3.85;;
14984;SDS011;7588;62.368;25.902;2023-08-01T11:49:44;4.30;;;4.00;;
14984;SDS011;7588;62.368;25.902;2023-08-01T11:52:21;4.68;;;4.28;;
14984;SDS011;7588;62.368;25.902;2023-08-01T11:54:51;4.47;;;4.18;;
14984;SDS011;7588;62.368;25.902;2023-08-01T11:57:17;5.22;;;4.72;;
14984;SDS011;7588;62.368;25.902;2023-08-01T11:59:49;9.45;;;6.15;;
14984;SDS011;7588;62.368;25.902;2023-08-01T12:02:22;4.40;;;4.10;;
14984;SDS011;7588;62.368;25.902;2023-08-01T12:04:52;4.28;;;3.95;;
14984;SDS011;7588;62.368;25.902;2023-08-01T12:07:19;4.22;;;3.92;;
14984;SDS011;7588;62.368;25.902;2023-08-01T12:09:54;5.13;;;4.63;;
14984;SDS011;7588;62.368;25.902;2023-08-01T12:12:23;4.72;;;4.38;;
14984;SDS011;7588;62.368;25.902;2023-08-01T12:14:49;3.95;;;3.65;;
14984;SDS011;7588;62.368;25.902;2023-08-01T12:17:14;5.38;;;4.38;;
14984;SDS011;7588;62.368;25.902;2023-08-01T12:19:40;4.68;;;4.30;;
14984;SDS011;7588;62.368;25.902;2023-08-01T12:22:05;4.32;;;3.92;;
14984;SDS011;7588;62.368;25.902;2023-08-01T12:24:31;4.10;;;3.80;;
14984;SDS011;7588;62.368;25.902;2023-08-01T12:26:58;6.28;;;4.10;;
14984;SDS011;7588;62.368;25.902;2023-08-01T12:29:24;4.20;;;3.88;;
14984;SDS011;7588;62.368;25.902;2023-08-01T12:31:50;4.20;;;3.90;;
14984;SDS011;7588;62.368;25.902;2023-08-01T12:34:16;4.15;;;3.85;;
14984;SDS011;7588;62.368;25.902;2023-08-01T12:36:41;3.65;;;3.35;;
14984;SDS011;7588;62.368;25.902;2023-08-01T12:39:07;4.55;;;4.15;;
14984;SDS011;7588;62.368;25.902;2023-08-01T12:41:36;5.20;;;4.57;;
14984;SDS011;7588;62.368;25.902;2023-08-01T12:44:04;8.02;;;4.40;;
14984;SDS011;7588;62.368;25.902;2023-08-01T12:46:30;4.88;;;3.83;;
14984;SDS011;7588;62.368;25.902;2023-08-01T12:48:56;4.30;;;4.00;;
14984;SDS011;7588;62.368;25.902;2023-08-01T12:51:22;5.63;;;5.05;;
14984;SDS011;7588;62.368;25.902;2023-08-01T12:53:48;4.22;;;3.83;;
14984;SDS011;7588;62.368;25.902;2023-08-01T12:56:13;4.72;;;4.32;;
14984;SDS011;7588;62.368;25.902;2023-08-01T12:58:39;4.40;;;4.10;;
14984;SDS011;7588;62.368;25.902;2023-08-01T13:01:05;4.82;;;3.83;;
14984;SDS011;7588;62.368;25.902;2023-08-01T13:03:31;4.88;;;4.53;;
14984;SDS011;7588;62.368;25.902;2023-08-01T13:05:57;4.07;;;3.67;;
14984;SDS011;7588;62.368;25.902;2023-08-01T13:08:23;5.40;;;4.32;;
14984;SDS011;7588;62.368;25.902;2023-08-01T13:10:48;3.83;;;3.50;;
14984;SDS011;7588;62.368;25.902;2023-08-01T13:13:15;3.70;;;3.40;;
14984;SDS011;7588;62.368;25.902;2023-08-01T13:15:41;3.80;;;3.13;;
14984;SDS011;7588;62.368;25.902;2023-08-01T13:18:07;4.25;;;3.95;;
14984;SDS011;7588;62.368;25.902;2023-08-01T13:20:32;3.88;;;3.65;;
14984;SDS011;7588;62.368;25.902;2023-08-01T13:22:58;4.25;;;3.88;;
14984;SDS011;7588;62.368;25.902;2023-08-01T13:25:24;3.58;;;3.38;;
14984;SDS011;7588;62.368;25.902;2023-08-01T13:27:49;5.10;;;4.70;;
14984;SDS011;7588;62.368;25.902;2023-08-01T13:30:15;4.68;;;4.28;;
14984;SDS011;7588;62.368;25.902;2023-08-01T13:32:43;6.30;;;5.80;;
14984;SDS011;7588;62.368;25.902;2023-08-01T13:35:10;5.43;;;5.00;;
14984;SDS011;7588;62.368;25.902;2023-08-01T13:37:36;6.38;;;5.97;;
14984;SDS011;7588;62.368;25.902;2023-08-01T13:40:02;4.13;;;3.80;;
14984;SDS011;7588;62.368;25.902;2023-08-01T13:42:28;3.97;;;3.58;;
14984;SDS011;7588;62.368;25.902;2023-08-01T13:44:54;4.75;;;4.45;;
14984;SDS011;7588;62.368;25.902;2023-08-01T13:47:20;6.43;;;5.88;;
14984;SDS011;7588;62.368;25.902;2023-08-01T13:49:46;4.38;;;3.97;;
14984;SDS011;7588;62.368;25.902;2023-08-01T13:52:11;4.25;;;3.92;;
14984;SDS011;7588;62.368;25.902;2023-08-01T13:54:37;5.90;;;5.50;;
14984;SDS011;7588;62.368;25.902;2023-08-01T13:57:02;4.13;;;3.83;;
14984;SDS011;7588;62.368;25.902;2023-08-01T13:59:28;6.82;;;4.95;;
14984;SDS011;7588;62.368;25.902;2023-08-01T14:01:54;5.40;;;4.90;;
14984;SDS011;7588;62.368;25.902;2023-08-01T14:04:20;5.03;;;4.22;;
14984;SDS011;7588;62.368;25.902;2023-08-01T14:06:46;4.00;;;3.65;;
14984;SDS011;7588;62.368;25.902;2023-08-01T14:09:12;5.70;;;3.60;;
14984;SDS011;7588;62.368;25.902;2023-08-01T14:11:38;4.10;;;3.33;;
14984;SDS011;7588;62.368;25.902;2023-08-01T14:14:04;4.43;;;3.47;;
14984;SDS011;7588;62.368;25.902;2023-08-01T14:16:30;4.63;;;3.90;;
14984;SDS011;7588;62.368;25.902;2023-08-01T14:18:56;4.03;;;3.70;;
14984;SDS011;7588;62.368;25.902;2023-08-01T14:21:22;4.60;;;4.20;;
14984;SDS011;7588;62.368;25.902;2023-08-01T14:23:48;4.45;;;3.97;;
14984;SDS011;7588;62.368;25.902;2023-08-01T14:26:15;4.40;;;3.80;;
14984;SDS011;7588;62.368;25.902;2023-08-01T14:28:40;4.22;;;3.90;;
14984;SDS011;7588;62.368;25.902;2023-08-01T14:31:06;3.78;;;3.47;;